Time;durP1;ratioP1;P1;durP2;ratioP2;P2;SDS_P1;SDS_P2;PMS_P1;PMS_P2;Temp;Humidity;BMP_temperature;BMP_pressure;BME280_temperature;BME280_humidity;BME280_pressure;Samples;Min_cycle;Max_cycle;Signal;HPM_P1;HPM_P2
2023/05/03 00:01:16;;;;;;;3.57;2.03;;;;;;;;;;5056344;28;20242;-52
2023/05/03 00:03:44;;;;;;;2.13;1.93;;;;;;;;;;5062998;28;20227;-52
2023/05/03 00:06:11;;;;;;;3.73;2.10;;;;;;;;;;5061854;28;20277;-53
2023/05/03 00:08:37;;;;;;;4.33;2.20;;;;;;;;;;5060001;28;20238;-52
2023/05/03 00:11:04;;;;;;;2.03;1.90;;;;;;;;;;5061242;28;20668;-52
2023/05/03 00:13:31;;;;;;;3.60;2.23;;;;;;;;;;5061457;28;20227;-53
2023/05/03 00:15:59;;;;;;;2.00;1.90;;;;;;;;;;5062070;28;20252;-52
2023/05/03 00:18:26;;;;;;;3.37;1.87;;;;;;;;;;5061103;28;20238;-53
2023/05/03 00:20:53;;;;;;;4.90;2.33;;;;;;;;;;5060505;28;20231;-53
2023/05/03 00:23:20;;;;;;;3.87;1.87;;;;;;;;;;5061745;28;20231;-52
2023/05/03 00:25:46;;;;;;;3.27;2.00;;;;;;;;;;5059904;28;20243;-52
2023/05/03 00:28:13;;;;;;;3.00;2.50;;;;;;;;;;5053542;28;20394;-53
2023/05/03 00:30:40;;;;;;;3.83;2.63;;;;;;;;;;5059935;28;20242;-53
2023/05/03 00:33:08;;;;;;;2.33;2.03;;;;;;;;;;5051252;28;20228;-52
2023/05/03 00:35:34;;;;;;;3.00;2.70;;;;;;;;;;5060318;28;20233;-53
2023/05/03 00:38:01;;;;;;;4.47;2.17;;;;;;;;;;5061049;28;20647;-52
2023/05/03 00:40:27;;;;;;;3.27;2.60;;;;;;;;;;5060293;28;20235;-52
2023/05/03 00:42:54;;;;;;;2.63;2.43;;;;;;;;;;5058873;28;20251;-52
2023/05/03 00:45:20;;;;;;;3.03;1.80;;;;;;;;;;5061841;28;20867;-52
2023/05/03 00:47:47;;;;;;;2.60;2.10;;;;;;;;;;5065513;28;20239;-51
2023/05/03 00:50:15;;;;;;;2.37;2.17;;;;;;;;;;5061971;28;20344;-52
2023/05/03 00:52:41;;;;;;;4.20;2.00;;;;;;;;;;5066233;28;20239;-53
2023/05/03 00:55:09;;;;;;;4.07;2.40;;;;;;;;;;5064170;28;20253;-53
2023/05/03 00:57:36;;;;;;;2.43;2.17;;;;;;;;;;5064461;28;20257;-52
2023/05/03 01:00:03;;;;;;;2.57;1.93;;;;;;;;;;5061592;28;20227;-52
2023/05/03 01:02:30;;;;;;;6.17;2.40;;;;;;;;;;5064214;28;20227;-53
2023/05/03 01:04:57;;;;;;;3.60;2.70;;;;;;;;;;5064587;28;20336;-52
2023/05/03 01:07:30;;;;;;;6.73;1.87;;;;;;;;;;5065594;28;20234;-51
2023/05/03 01:10:01;;;;;;;2.23;2.03;;;;;;;;;;5064266;28;20266;-54
2023/05/03 01:12:34;;;;;;;3.90;3.13;;;;;;;;;;5064147;28;20803;-51
2023/05/03 01:15:07;;;;;;;8.00;2.87;;;;;;;;;;5064269;28;20318;-53
2023/05/03 01:17:35;;;;;;;1.97;1.77;;;;;;;;;;5065022;28;20231;-51
2023/05/03 01:20:07;;;;;;;3.30;2.40;;;;;;;;;;5063793;28;20223;-52
2023/05/03 01:22:42;;;;;;;5.33;2.13;;;;;;;;;;5064323;28;20273;-53
2023/05/03 01:25:11;;;;;;;4.07;2.63;;;;;;;;;;5050441;28;20241;-52
2023/05/03 01:27:37;;;;;;;4.90;2.23;;;;;;;;;;5058384;28;20231;-52
2023/05/03 01:30:05;;;;;;;2.53;2.10;;;;;;;;;;5063370;28;20744;-52
2023/05/03 01:32:36;;;;;;;3.70;2.23;;;;;;;;;;5064419;28;20223;-53
2023/05/03 01:35:04;;;;;;;2.97;2.00;;;;;;;;;;5064580;28;20235;-53
2023/05/03 01:37:32;;;;;;;2.33;2.10;;;;;;;;;;5064939;28;20231;-52
2023/05/03 01:40:01;;;;;;;3.33;2.20;;;;;;;;;;5062221;28;20282;-53
2023/05/03 01:42:30;;;;;;;4.23;2.53;;;;;;;;;;5060441;28;20223;-52
2023/05/03 01:44:56;;;;;;;7.00;2.43;;;;;;;;;;5061340;28;20318;-53
2023/05/03 01:47:23;;;;;;;2.73;2.00;;;;;;;;;;5065195;28;20245;-53
2023/05/03 01:49:50;;;;;;;3.73;2.20;;;;;;;;;;5063379;28;20243;-53
2023/05/03 01:52:16;;;;;;;7.13;2.57;;;;;;;;;;5062431;28;20246;-52
2023/05/03 01:54:43;;;;;;;4.97;2.37;;;;;;;;;;5064015;28;20336;-52
2023/05/03 01:57:09;;;;;;;2.33;2.13;;;;;;;;;;5064355;28;20231;-54
2023/05/03 01:59:37;;;;;;;1.80;1.70;;;;;;;;;;5062379;28;20237;-51
2023/05/03 02:02:04;;;;;;;3.17;2.87;;;;;;;;;;5062008;28;20231;-51
2023/05/03 02:04:31;;;;;;;2.07;1.83;;;;;;;;;;5060442;28;20255;-52
2023/05/03 02:06:57;;;;;;;3.17;1.73;;;;;;;;;;5062542;28;20223;-53
2023/05/03 02:09:24;;;;;;;2.40;2.10;;;;;;;;;;5062249;28;20277;-51
2023/05/03 02:11:51;;;;;;;2.63;2.07;;;;;;;;;;5064111;28;20314;-52
2023/05/03 02:14:18;;;;;;;2.77;1.83;;;;;;;;;;5064226;28;20776;-53
2023/05/03 02:16:45;;;;;;;3.90;2.10;;;;;;;;;;5062857;28;20288;-52
2023/05/03 02:19:12;;;;;;;4.00;3.17;;;;;;;;;;5059409;28;20281;-53
2023/05/03 02:21:38;;;;;;;3.27;1.90;;;;;;;;;;5063258;28;20235;-52
2023/05/03 02:24:05;;;;;;;3.10;2.33;;;;;;;;;;5062483;28;20223;-52
2023/05/03 02:26:32;;;;;;;4.10;1.90;;;;;;;;;;5064262;28;20730;-52
2023/05/03 02:28:59;;;;;;;3.93;1.87;;;;;;;;;;5059527;28;20418;-52
2023/05/03 02:31:26;;;;;;;4.27;1.97;;;;;;;;;;5062806;28;20229;-53
2023/05/03 02:33:54;;;;;;;2.77;1.83;;;;;;;;;;5060245;28;20247;-53
2023/05/03 02:36:21;;;;;;;2.97;2.17;;;;;;;;;;5062437;28;20320;-53
2023/05/03 02:38:48;;;;;;;2.43;1.97;;;;;;;;;;5064302;28;20247;-52
2023/05/03 02:41:15;;;;;;;4.20;2.20;;;;;;;;;;5063927;28;20232;-52
2023/05/03 02:43:41;;;;;;;4.83;1.93;;;;;;;;;;5063354;28;20239;-52
2023/05/03 02:46:08;;;;;;;2.43;2.07;;;;;;;;;;5062434;28;20711;-51
2023/05/03 02:48:35;;;;;;;5.00;2.30;;;;;;;;;;5062873;28;20706;-52
2023/05/03 02:51:03;;;;;;;5.27;2.27;;;;;;;;;;5059354;28;20231;-52
2023/05/03 02:53:30;;;;;;;2.13;1.97;;;;;;;;;;5061756;28;20227;-52
2023/05/03 02:55:56;;;;;;;6.37;2.43;;;;;;;;;;5063088;28;20235;-52
2023/05/03 02:58:23;;;;;;;2.83;1.97;;;;;;;;;;5063552;28;20235;-53
2023/05/03 03:00:50;;;;;;;3.17;2.10;;;;;;;;;;5063664;28;20227;-53
2023/05/03 03:03:17;;;;;;;3.43;2.10;;;;;;;;;;5063980;28;20251;-52
2023/05/03 03:05:43;;;;;;;4.97;2.40;;;;;;;;;;5060037;28;20257;-52
2023/05/03 03:08:11;;;;;;;3.13;2.30;;;;;;;;;;5060948;28;20296;-53
2023/05/03 03:10:38;;;;;;;6.00;3.23;;;;;;;;;;5061817;28;20710;-53
2023/05/03 03:13:05;;;;;;;2.90;1.90;;;;;;;;;;5062549;28;20292;-52
2023/05/03 03:15:31;;;;;;;4.93;2.53;;;;;;;;;;5059524;28;20239;-52
2023/05/03 03:17:58;;;;;;;8.17;2.90;;;;;;;;;;5061282;28;20239;-53
2023/05/03 03:20:28;;;;;;;3.23;2.10;;;;;;;;;;5062955;28;20289;-52
2023/05/03 03:22:54;;;;;;;3.03;2.10;;;;;;;;;;5061177;28;20744;-53
2023/05/03 03:25:22;;;;;;;3.10;2.27;;;;;;;;;;5063095;28;20325;-52
2023/05/03 03:27:49;;;;;;;3.00;2.30;;;;;;;;;;5055633;28;20781;-52
2023/05/03 03:30:16;;;;;;;3.93;2.10;;;;;;;;;;5062082;28;20237;-51
2023/05/03 03:32:42;;;;;;;2.43;2.23;;;;;;;;;;5059800;28;20246;-53
2023/05/03 03:35:10;;;;;;;5.33;2.13;;;;;;;;;;5061437;28;20235;-53
2023/05/03 03:37:37;;;;;;;3.60;2.13;;;;;;;;;;5062156;28;20235;-51
2023/05/03 03:40:04;;;;;;;5.17;2.40;;;;;;;;;;5061232;28;20227;-53
2023/05/03 03:42:32;;;;;;;2.40;2.10;;;;;;;;;;5062392;28;20317;-51
2023/05/03 03:44:59;;;;;;;3.83;2.77;;;;;;;;;;5062439;28;20758;-50
2023/05/03 03:47:26;;;;;;;5.67;2.67;;;;;;;;;;5059797;28;20227;-54
2023/05/03 03:49:52;;;;;;;5.87;2.67;;;;;;;;;;5062306;28;20235;-50
2023/05/03 03:52:19;;;;;;;3.33;2.10;;;;;;;;;;5062849;28;20231;-51
2023/05/03 03:54:45;;;;;;;2.77;2.57;;;;;;;;;;5055010;28;20274;-52
2023/05/03 03:57:12;;;;;;;4.43;2.30;;;;;;;;;;5062749;28;20242;-52
2023/05/03 03:59:40;;;;;;;4.60;2.63;;;;;;;;;;5059974;28;20243;-51
2023/05/03 04:02:07;;;;;;;5.60;2.10;;;;;;;;;;5060517;28;20235;-51
2023/05/03 04:04:37;;;;;;;4.40;2.47;;;;;;;;;;5063008;28;20223;-52
2023/05/03 04:07:04;;;;;;;5.73;2.10;;;;;;;;;;5061883;28;20259;-52
2023/05/03 04:09:31;;;;;;;2.67;2.30;;;;;;;;;;5059508;28;20734;-52
2023/05/03 04:11:58;;;;;;;6.30;2.57;;;;;;;;;;5058678;28;20868;-52
2023/05/03 04:14:25;;;;;;;4.03;2.73;;;;;;;;;;5061784;28;20749;-51
2023/05/03 04:16:53;;;;;;;2.13;1.90;;;;;;;;;;5059535;28;20239;-52
2023/05/03 04:19:21;;;;;;;4.70;2.13;;;;;;;;;;5060333;28;20307;-51
2023/05/03 04:21:48;;;;;;;4.70;2.27;;;;;;;;;;5064753;28;20893;-52
2023/05/03 04:24:16;;;;;;;3.37;2.27;;;;;;;;;;5065220;28;20253;-52
2023/05/03 04:26:42;;;;;;;3.80;2.40;;;;;;;;;;5062904;28;20313;-51
2023/05/03 04:29:10;;;;;;;3.77;2.13;;;;;;;;;;5064055;28;20235;-52
2023/05/03 04:31:38;;;;;;;6.40;2.37;;;;;;;;;;5065265;28;20284;-52
2023/05/03 04:34:06;;;;;;;3.97;2.57;;;;;;;;;;5066352;28;20223;-51
2023/05/03 04:36:33;;;;;;;5.90;2.43;;;;;;;;;;5065829;28;20641;-52
2023/05/03 04:39:00;;;;;;;3.17;2.37;;;;;;;;;;5063027;28;20673;-52
2023/05/03 04:41:26;;;;;;;4.23;2.37;;;;;;;;;;5064895;28;20231;-52
2023/05/03 04:43:53;;;;;;;3.97;2.73;;;;;;;;;;5063124;28;20717;-51
2023/05/03 04:46:20;;;;;;;2.80;2.23;;;;;;;;;;5064411;28;20253;-52
2023/05/03 04:48:46;;;;;;;4.57;2.80;;;;;;;;;;5065337;28;20245;-52
2023/05/03 04:51:14;;;;;;;8.17;3.47;;;;;;;;;;5066008;28;20238;-51
2023/05/03 04:53:41;;;;;;;1.90;1.80;;;;;;;;;;5065816;28;20708;-52
2023/05/03 04:56:08;;;;;;;4.70;2.67;;;;;;;;;;5066021;28;20983;-52
2023/05/03 04:58:35;;;;;;;6.43;2.43;;;;;;;;;;5063663;28;20241;-51
2023/05/03 05:01:02;;;;;;;5.63;2.43;;;;;;;;;;5063588;28;20235;-51
2023/05/03 05:03:29;;;;;;;2.97;2.77;;;;;;;;;;5066003;28;20234;-52
2023/05/03 05:05:55;;;;;;;7.70;2.70;;;;;;;;;;5062835;28;20239;-52
2023/05/03 05:08:24;;;;;;;4.63;2.43;;;;;;;;;;5063283;28;20242;-51
2023/05/03 05:10:50;;;;;;;4.07;2.37;;;;;;;;;;5065460;28;20726;-52
2023/05/03 05:13:17;;;;;;;6.03;2.30;;;;;;;;;;5061635;28;20246;-52
2023/05/03 05:15:44;;;;;;;3.50;2.23;;;;;;;;;;5065227;28;20257;-51
2023/05/03 05:18:11;;;;;;;3.20;2.57;;;;;;;;;;5062225;28;20231;-52
2023/05/03 05:20:37;;;;;;;2.90;2.60;;;;;;;;;;5064526;28;20656;-52
2023/05/03 05:23:04;;;;;;;2.40;2.20;;;;;;;;;;5064822;28;20223;-51
2023/05/03 05:25:32;;;;;;;5.87;2.47;;;;;;;;;;5063708;28;20324;-52
2023/05/03 05:27:58;;;;;;;5.40;3.10;;;;;;;;;;5060261;28;20574;-52
2023/05/03 05:30:25;;;;;;;6.17;2.67;;;;;;;;;;5061121;28;20242;-51
2023/05/03 05:32:52;;;;;;;3.13;2.73;;;;;;;;;;5059718;28;20239;-51
2023/05/03 05:35:18;;;;;;;5.23;2.70;;;;;;;;;;5065477;28;20300;-55
2023/05/03 05:37:45;;;;;;;3.50;2.40;;;;;;;;;;5064046;28;20239;-52
2023/05/03 05:40:12;;;;;;;2.60;2.40;;;;;;;;;;5064084;28;20306;-52
2023/05/03 05:42:40;;;;;;;2.63;2.03;;;;;;;;;;5064907;28;20312;-51
2023/05/03 05:45:07;;;;;;;4.30;2.40;;;;;;;;;;5058037;28;20318;-52
2023/05/03 05:47:34;;;;;;;2.00;1.80;;;;;;;;;;5059513;28;20241;-53
2023/05/03 05:50:00;;;;;;;2.60;2.40;;;;;;;;;;5063457;28;20239;-51
2023/05/03 05:52:27;;;;;;;6.70;2.27;;;;;;;;;;5065469;28;20331;-52
2023/05/03 05:54:53;;;;;;;2.77;1.93;;;;;;;;;;5064937;28;20619;-51
2023/05/03 05:57:20;;;;;;;5.17;2.67;;;;;;;;;;5063639;28;20256;-51
2023/05/03 05:59:49;;;;;;;2.20;2.00;;;;;;;;;;5062281;28;20235;-52
2023/05/03 06:02:16;;;;;;;2.37;2.10;;;;;;;;;;5057468;28;21860;-52
2023/05/03 06:04:43;;;;;;;2.90;2.27;;;;;;;;;;5062262;28;20235;-51
2023/05/03 06:07:10;;;;;;;6.67;2.63;;;;;;;;;;5061042;28;20258;-51
2023/05/03 06:09:37;;;;;;;3.50;2.10;;;;;;;;;;5062311;28;20251;-51
2023/05/03 06:12:04;;;;;;;4.70;2.40;;;;;;;;;;5060097;28;20230;-53
2023/05/03 06:14:30;;;;;;;5.57;2.20;;;;;;;;;;5058149;28;20312;-51
2023/05/03 06:16:59;;;;;;;1.90;1.73;;;;;;;;;;5060071;28;20242;-52
2023/05/03 06:19:26;;;;;;;5.97;2.37;;;;;;;;;;5063064;28;20263;-53
2023/05/03 06:21:52;;;;;;;3.40;2.30;;;;;;;;;;5062192;28;20231;-52
2023/05/03 06:24:20;;;;;;;2.77;1.83;;;;;;;;;;5067332;28;20372;-52
2023/05/03 06:26:46;;;;;;;5.23;2.00;;;;;;;;;;5062895;28;20574;-52
2023/05/03 06:29:12;;;;;;;2.97;2.00;;;;;;;;;;5063001;28;20952;-53
2023/05/03 06:31:40;;;;;;;6.50;2.40;;;;;;;;;;5064514;28;25360;-52
2023/05/03 06:34:08;;;;;;;2.10;1.90;;;;;;;;;;5062045;28;20288;-53
2023/05/03 06:36:35;;;;;;;3.77;2.30;;;;;;;;;;5061741;28;20637;-53
2023/05/03 06:39:03;;;;;;;2.87;1.67;;;;;;;;;;5060703;28;20262;-52
2023/05/03 06:41:30;;;;;;;3.93;1.90;;;;;;;;;;5060243;28;20301;-53
2023/05/03 06:43:56;;;;;;;2.03;1.80;;;;;;;;;;5059138;28;20259;-53
2023/05/03 06:46:23;;;;;;;2.90;1.73;;;;;;;;;;5058085;28;20246;-53
2023/05/03 06:48:49;;;;;;;3.33;1.93;;;;;;;;;;5056349;28;20235;-54
2023/05/03 06:51:18;;;;;;;4.90;1.90;;;;;;;;;;5061424;28;20262;-52
2023/05/03 06:53:45;;;;;;;3.67;1.83;;;;;;;;;;5061253;28;20272;-53
2023/05/03 06:56:11;;;;;;;4.53;1.90;;;;;;;;;;5057497;28;20745;-52
2023/05/03 06:58:38;;;;;;;3.57;1.50;;;;;;;;;;5060603;28;20335;-53
2023/05/03 07:01:04;;;;;;;4.27;2.07;;;;;;;;;;5057808;28;20411;-51
2023/05/03 07:03:31;;;;;;;13.03;2.63;;;;;;;;;;5052303;28;20631;-53
2023/05/03 07:05:57;;;;;;;3.23;1.57;;;;;;;;;;5059982;28;20779;-53
2023/05/03 07:08:25;;;;;;;2.43;1.50;;;;;;;;;;5060541;28;20326;-53
2023/05/03 07:10:51;;;;;;;4.03;1.80;;;;;;;;;;5058749;28;20240;-53
2023/05/03 07:13:18;;;;;;;3.03;1.90;;;;;;;;;;5063182;28;20310;-52
2023/05/03 07:15:45;;;;;;;5.83;1.97;;;;;;;;;;5059880;28;20240;-54
2023/05/03 07:18:12;;;;;;;3.03;1.73;;;;;;;;;;5060650;28;20746;-53
2023/05/03 07:20:38;;;;;;;7.20;3.23;;;;;;;;;;5058946;28;20601;-54
2023/05/03 07:23:05;;;;;;;2.13;1.27;;;;;;;;;;5058221;28;20227;-53
2023/05/03 07:25:33;;;;;;;4.67;1.50;;;;;;;;;;5059105;28;20239;-52
2023/05/03 07:28:00;;;;;;;5.00;2.33;;;;;;;;;;5060016;28;20262;-52
2023/05/03 07:30:26;;;;;;;6.20;2.00;;;;;;;;;;5058756;28;20235;-52
2023/05/03 07:32:54;;;;;;;3.47;1.77;;;;;;;;;;5060560;28;20235;-52
2023/05/03 07:35:22;;;;;;;6.17;1.80;;;;;;;;;;5058989;28;20270;-52
2023/05/03 07:37:48;;;;;;;5.93;2.50;;;;;;;;;;5060471;28;20718;-53
2023/05/03 07:40:15;;;;;;;5.60;2.90;;;;;;;;;;5060626;28;20863;-53
2023/05/03 07:42:43;;;;;;;5.57;2.20;;;;;;;;;;5058576;28;20251;-52
2023/05/03 07:45:10;;;;;;;3.33;2.00;;;;;;;;;;5060166;28;20274;-53
2023/05/03 07:47:38;;;;;;;2.83;2.17;;;;;;;;;;5060995;28;20219;-52
2023/05/03 07:50:06;;;;;;;5.97;1.97;;;;;;;;;;5060738;28;20227;-53
2023/05/03 07:52:35;;;;;;;3.90;2.00;;;;;;;;;;5059091;28;20235;-52
2023/05/03 07:55:03;;;;;;;7.77;2.27;;;;;;;;;;5060649;28;20232;-52
2023/05/03 07:57:29;;;;;;;3.87;2.40;;;;;;;;;;5061026;28;20314;-52
2023/05/03 07:59:57;;;;;;;4.10;1.93;;;;;;;;;;5056543;28;20258;-53
2023/05/03 08:02:24;;;;;;;2.47;2.27;;;;;;;;;;5058175;28;20242;-51
2023/05/03 08:04:50;;;;;;;3.67;2.30;;;;;;;;;;5060115;28;20259;-52
2023/05/03 08:07:17;;;;;;;4.17;2.13;;;;;;;;;;5059115;28;20245;-52
2023/05/03 08:09:43;;;;;;;7.97;2.33;;;;;;;;;;5061951;28;20258;-51
2023/05/03 08:12:10;;;;;;;2.77;2.23;;;;;;;;;;5060632;28;20244;-51
2023/05/03 08:14:37;;;;;;;2.20;1.70;;;;;;;;;;5059419;28;20313;-52
2023/05/03 08:17:04;;;;;;;2.83;2.50;;;;;;;;;;5061197;28;20227;-52
2023/05/03 08:19:31;;;;;;;5.03;2.40;;;;;;;;;;5060180;28;20245;-52
2023/05/03 08:21:57;;;;;;;3.67;2.00;;;;;;;;;;5059776;28;20228;-53
2023/05/03 08:24:24;;;;;;;5.03;2.50;;;;;;;;;;5061933;28;20231;-52
2023/05/03 08:26:51;;;;;;;7.30;3.27;;;;;;;;;;5063080;28;20451;-53
2023/05/03 08:29:17;;;;;;;7.47;2.20;;;;;;;;;;5064203;28;20243;-52
2023/05/03 08:31:44;;;;;;;7.53;3.03;;;;;;;;;;5061434;28;20334;-52
2023/05/03 08:34:12;;;;;;;4.30;2.92;;;;;;;;;;5062165;28;21024;-52
2023/05/03 08:36:38;;;;;;;4.45;2.30;;;;;;;;;;5058540;28;20736;-52
2023/05/03 08:39:05;;;;;;;4.72;2.53;;;;;;;;;;5060560;28;20247;-51
2023/05/03 08:41:32;;;;;;;4.22;2.33;;;;;;;;;;5052995;28;20239;-51
2023/05/03 08:44:00;;;;;;;2.60;2.03;;;;;;;;;;5060100;28;20243;-51
2023/05/03 08:46:27;;;;;;;6.72;2.35;;;;;;;;;;5061473;28;20249;-52
2023/05/03 08:48:54;;;;;;;3.88;2.13;;;;;;;;;;5060336;28;20235;-52
2023/05/03 08:51:22;;;;;;;4.53;2.33;;;;;;;;;;5060646;28;20236;-55
2023/05/03 08:53:49;;;;;;;3.17;2.33;;;;;;;;;;5059155;28;20224;-52
2023/05/03 08:56:20;;;;;;;2.90;1.88;;;;;;;;;;5060188;28;20703;-51
2023/05/03 08:58:46;;;;;;;3.58;2.00;;;;;;;;;;5059815;28;20223;-52
2023/05/03 09:01:13;;;;;;;9.05;2.88;;;;;;;;;;5061907;28;20483;-53
2023/05/03 09:03:39;;;;;;;8.02;2.85;;;;;;;;;;5059268;28;20227;-52
2023/05/03 09:06:18;;;;;;;6.05;2.53;;;;;;;;;;5061364;28;20235;-52
2023/05/03 09:08:46;;;;;;;4.45;1.75;;;;;;;;;;5064238;28;20231;-51
2023/05/03 09:11:20;;;;;;;6.78;2.63;;;;;;;;;;5065895;28;20226;-51
2023/05/03 09:13:46;;;;;;;2.42;2.20;;;;;;;;;;5064233;28;20227;-51
2023/05/03 09:16:21;;;;;;;3.47;1.70;;;;;;;;;;5063773;28;20679;-51
2023/05/03 09:18:56;;;;;;;4.95;2.15;;;;;;;;;;5064297;28;20259;-52
2023/05/03 09:21:22;;;;;;;9.60;2.42;;;;;;;;;;5064905;28;20226;-52
2023/05/03 09:23:50;;;;;;;6.35;2.20;;;;;;;;;;5066212;28;20335;-52
2023/05/03 09:26:27;;;;;;;2.75;1.80;;;;;;;;;;5062407;28;20310;-51
2023/05/03 09:28:55;;;;;;;3.10;2.20;;;;;;;;;;5063289;28;20726;-54
2023/05/03 09:31:22;;;;;;;3.65;2.10;;;;;;;;;;5061075;28;20305;-53
2023/05/03 09:33:48;;;;;;;5.85;2.40;;;;;;;;;;5062895;28;20231;-53
2023/05/03 09:36:14;;;;;;;2.72;2.25;;;;;;;;;;5062763;28;20246;-51
2023/05/03 09:38:41;;;;;;;6.18;2.58;;;;;;;;;;5061220;28;20255;-54
2023/05/03 09:41:10;;;;;;;4.03;1.60;;;;;;;;;;5064712;28;20227;-51
2023/05/03 09:43:47;;;;;;;6.55;2.10;;;;;;;;;;5063331;28;20231;-51
2023/05/03 09:46:16;;;;;;;4.35;2.05;;;;;;;;;;5064790;28;20347;-53
2023/05/03 09:48:43;;;;;;;4.75;2.63;;;;;;;;;;5065624;28;20698;-53
2023/05/03 09:51:11;;;;;;;2.55;1.90;;;;;;;;;;5063363;28;20723;-52
2023/05/03 09:53:38;;;;;;;4.47;1.73;;;;;;;;;;5061913;28;20677;-53
2023/05/03 09:56:05;;;;;;;3.25;1.60;;;;;;;;;;5062934;28;20234;-52
2023/05/03 09:58:33;;;;;;;3.60;1.88;;;;;;;;;;5062687;28;20235;-52
2023/05/03 10:01:00;;;;;;;5.15;2.25;;;;;;;;;;5060635;28;20316;-52
2023/05/03 10:03:31;;;;;;;4.13;2.33;;;;;;;;;;5063873;28;20339;-51
2023/05/03 10:05:59;;;;;;;3.08;2.10;;;;;;;;;;5067005;28;20292;-52
2023/05/03 10:08:27;;;;;;;8.63;3.05;;;;;;;;;;5063728;28;20284;-52
2023/05/03 10:10:54;;;;;;;11.50;3.97;;;;;;;;;;5063356;28;20258;-52
2023/05/03 10:13:21;;;;;;;3.55;2.00;;;;;;;;;;5061704;28;20654;-52
2023/05/03 10:15:49;;;;;;;5.57;2.38;;;;;;;;;;5063821;28;20231;-51
2023/05/03 10:18:18;;;;;;;4.85;2.05;;;;;;;;;;5061294;28;20231;-52
2023/05/03 10:20:49;;;;;;;5.28;2.35;;;;;;;;;;5062644;28;20233;-52
2023/05/03 10:23:15;;;;;;;7.53;2.15;;;;;;;;;;5065914;28;20242;-52
2023/05/03 10:25:57;;;;;;;4.88;1.65;;;;;;;;;;5063627;28;20255;-52
2023/05/03 10:28:23;;;;;;;5.47;2.40;;;;;;;;;;5061744;28;20229;-51
2023/05/03 10:30:51;;;;;;;2.63;2.08;;;;;;;;;;5064790;28;20227;-53
2023/05/03 10:33:35;;;;;;;2.92;2.03;;;;;;;;;;5060973;28;20314;-52
2023/05/03 10:36:05;;;;;;;1.98;1.73;;;;;;;;;;5062112;28;20227;-53
2023/05/03 10:38:31;;;;;;;2.17;2.00;;;;;;;;;;5060390;28;20249;-53
2023/05/03 10:41:02;;;;;;;2.83;1.48;;;;;;;;;;5063502;28;20231;-51
2023/05/03 10:43:47;;;;;;;4.40;2.13;;;;;;;;;;5056889;28;20227;-51
2023/05/03 10:46:35;;;;;;;2.28;1.73;;;;;;;;;;5060850;28;20231;-52
2023/05/03 10:49:18;;;;;;;4.10;1.50;;;;;;;;;;5062841;28;20300;-52
2023/05/03 10:51:44;;;;;;;3.08;1.30;;;;;;;;;;5060681;28;20714;-53
2023/05/03 10:54:11;;;;;;;1.70;1.58;;;;;;;;;;5061190;28;20238;-52
2023/05/03 10:56:47;;;;;;;3.53;1.52;;;;;;;;;;5061574;28;20235;-52
2023/05/03 10:59:13;;;;;;;3.22;1.58;;;;;;;;;;5060920;28;20240;-51
2023/05/03 11:01:43;;;;;;;5.65;1.88;;;;;;;;;;5063216;28;20233;-53
2023/05/03 11:04:11;;;;;;;3.67;1.90;;;;;;;;;;5061724;28;20232;-52
2023/05/03 11:06:39;;;;;;;4.65;1.50;;;;;;;;;;5063882;28;20389;-51
2023/05/03 11:09:07;;;;;;;3.05;1.95;;;;;;;;;;5058858;28;20227;-52
2023/05/03 11:11:33;;;;;;;5.07;1.60;;;;;;;;;;5060596;28;20235;-53
2023/05/03 11:14:00;;;;;;;4.60;1.50;;;;;;;;;;5061412;28;20326;-53
2023/05/03 11:16:26;;;;;;;5.85;1.67;;;;;;;;;;5060589;28;20239;-53
2023/05/03 11:18:55;;;;;;;3.38;1.95;;;;;;;;;;5063007;28;20231;-52
2023/05/03 11:21:21;;;;;;;3.28;1.80;;;;;;;;;;5063245;28;20232;-52
2023/05/03 11:23:48;;;;;;;4.95;2.10;;;;;;;;;;5060729;28;20321;-53
2023/05/03 11:26:14;;;;;;;2.72;1.30;;;;;;;;;;5060725;28;20604;-52
2023/05/03 11:28:41;;;;;;;3.70;2.38;;;;;;;;;;5061802;28;20326;-53
2023/05/03 11:31:08;;;;;;;2.63;1.38;;;;;;;;;;5057195;28;20249;-52
2023/05/03 11:33:36;;;;;;;3.97;2.00;;;;;;;;;;5064166;28;20624;-53
2023/05/03 11:36:04;;;;;;;3.78;1.67;;;;;;;;;;5053018;28;20609;-52
2023/05/03 11:38:31;;;;;;;3.08;1.67;;;;;;;;;;5060728;28;20255;-52
2023/05/03 11:40:58;;;;;;;2.90;1.88;;;;;;;;;;5061097;28;20258;-54
2023/05/03 11:43:25;;;;;;;4.35;1.50;;;;;;;;;;5063174;28;20238;-52
2023/05/03 11:45:53;;;;;;;4.15;1.83;;;;;;;;;;5062998;28;20601;-53
2023/05/03 11:48:19;;;;;;;4.20;1.20;;;;;;;;;;5058575;28;20245;-53
2023/05/03 11:53:18;;;;;;;2.13;1.35;;;;;;;;;;5029772;22;20351;-52
2023/05/03 11:55:46;;;;;;;2.40;1.40;;;;;;;;;;5029265;28;20307;-53
2023/05/03 11:58:13;;;;;;;2.90;1.40;;;;;;;;;;5039455;28;20264;-53
2023/05/03 12:00:42;;;;;;;6.30;1.52;;;;;;;;;;5038885;28;20654;-51
2023/05/03 12:03:09;;;;;;;2.13;1.27;;;;;;;;;;5021596;28;20319;-52
2023/05/03 12:05:35;;;;;;;3.88;1.70;;;;;;;;;;5035347;28;20259;-53
2023/05/03 12:08:02;;;;;;;1.60;1.27;;;;;;;;;;5033401;28;20312;-55
2023/05/03 12:10:32;;;;;;;4.50;2.22;;;;;;;;;;5028595;28;20298;-51
2023/05/03 12:12:59;;;;;;;2.10;1.60;;;;;;;;;;5027260;28;20248;-56
2023/05/03 12:15:32;;;;;;;6.22;1.58;;;;;;;;;;5032208;28;20776;-53
2023/05/03 12:17:59;;;;;;;3.63;1.13;;;;;;;;;;5036728;28;20697;-53
2023/05/03 12:20:27;;;;;;;2.83;1.50;;;;;;;;;;5032751;28;20741;-52
2023/05/03 12:22:55;;;;;;;3.78;1.30;;;;;;;;;;5046621;28;20239;-52
2023/05/03 12:25:21;;;;;;;2.17;1.25;;;;;;;;;;5038811;28;20241;-51
2023/05/03 12:27:49;;;;;;;1.80;1.48;;;;;;;;;;5036403;28;20236;-53
2023/05/03 12:30:15;;;;;;;4.65;1.90;;;;;;;;;;5033228;28;20282;-53
2023/05/03 12:32:42;;;;;;;2.42;1.67;;;;;;;;;;5046247;28;20326;-51
2023/05/03 12:35:08;;;;;;;1.80;1.40;;;;;;;;;;5040843;28;20282;-52
2023/05/03 12:37:35;;;;;;;2.95;1.65;;;;;;;;;;5044124;28;20244;-53
2023/05/03 12:40:01;;;;;;;4.43;1.90;;;;;;;;;;5039890;28;20734;-51
2023/05/03 12:42:28;;;;;;;7.05;1.98;;;;;;;;;;5043113;28;20710;-54
2023/05/03 12:44:58;;;;;;;4.80;1.52;;;;;;;;;;5031960;28;20224;-51
2023/05/03 12:47:24;;;;;;;2.97;1.67;;;;;;;;;;5044453;28;20242;-53
2023/05/03 12:49:51;;;;;;;2.60;1.77;;;;;;;;;;5034019;28;20240;-53
2023/05/03 12:52:17;;;;;;;4.00;1.60;;;;;;;;;;5042613;28;20243;-52
2023/05/03 12:54:45;;;;;;;5.28;1.50;;;;;;;;;;5044419;28;20306;-52
2023/05/03 12:57:13;;;;;;;4.43;1.67;;;;;;;;;;5047297;28;20718;-52
2023/05/03 12:59:39;;;;;;;3.13;1.92;;;;;;;;;;5037256;28;20231;-51
2023/05/03 13:02:07;;;;;;;3.25;1.77;;;;;;;;;;5039899;28;20801;-53
2023/05/03 13:04:34;;;;;;;2.75;1.58;;;;;;;;;;5050540;28;20697;-53
2023/05/03 13:07:01;;;;;;;2.25;1.42;;;;;;;;;;5049546;28;20232;-53
2023/05/03 13:09:28;;;;;;;3.83;1.55;;;;;;;;;;5035859;28;20324;-53
2023/05/03 13:11:55;;;;;;;3.53;1.90;;;;;;;;;;5035250;28;20326;-54
2023/05/03 13:14:21;;;;;;;2.22;1.15;;;;;;;;;;5034406;28;20232;-54
2023/05/03 13:16:50;;;;;;;6.10;1.95;;;;;;;;;;5036379;28;20605;-52
2023/05/03 13:19:17;;;;;;;2.15;1.50;;;;;;;;;;5036416;28;20721;-53
2023/05/03 13:21:46;;;;;;;2.30;1.35;;;;;;;;;;5038782;28;20246;-53
2023/05/03 13:24:12;;;;;;;2.88;1.40;;;;;;;;;;5036112;28;20429;-52
2023/05/03 13:26:39;;;;;;;4.90;1.73;;;;;;;;;;5030571;28;20257;-52
2023/05/03 13:29:05;;;;;;;2.60;1.50;;;;;;;;;;5033760;28;20228;-51
2023/05/03 13:31:32;;;;;;;2.80;1.77;;;;;;;;;;5051332;28;20239;-53
2023/05/03 13:33:58;;;;;;;4.47;1.73;;;;;;;;;;5052454;28;20243;-53
2023/05/03 13:36:26;;;;;;;4.13;1.67;;;;;;;;;;5061005;28;20224;-53
2023/05/03 13:38:53;;;;;;;3.92;1.50;;;;;;;;;;5033798;28;20290;-52
2023/05/03 13:41:20;;;;;;;3.30;1.75;;;;;;;;;;5045316;28;21229;-53
2023/05/03 13:43:46;;;;;;;2.05;1.42;;;;;;;;;;5038922;28;20233;-51
2023/05/03 13:46:13;;;;;;;6.82;2.10;;;;;;;;;;5031087;28;20246;-53
2023/05/03 13:48:41;;;;;;;3.53;1.83;;;;;;;;;;5038649;28;20232;-52
2023/05/03 13:51:07;;;;;;;2.95;2.10;;;;;;;;;;5047802;28;20236;-53
2023/05/03 13:53:35;;;;;;;2.40;1.55;;;;;;;;;;5040486;28;20284;-52
2023/05/03 13:56:01;;;;;;;2.67;1.50;;;;;;;;;;5033682;28;20256;-52
2023/05/03 13:58:28;;;;;;;4.00;1.67;;;;;;;;;;5026566;28;20752;-51
2023/05/03 14:00:54;;;;;;;3.38;1.83;;;;;;;;;;5031199;28;20236;-50
2023/05/03 14:03:21;;;;;;;3.53;1.75;;;;;;;;;;5032548;28;20323;-52
2023/05/03 14:05:47;;;;;;;6.53;2.05;;;;;;;;;;5044584;28;20228;-52
2023/05/03 14:08:14;;;;;;;2.38;1.38;;;;;;;;;;5037541;28;20620;-53
2023/05/03 14:10:41;;;;;;;1.58;1.30;;;;;;;;;;5031800;28;20244;-52
2023/05/03 14:13:08;;;;;;;3.83;1.75;;;;;;;;;;5036746;28;20300;-53
2023/05/03 14:15:38;;;;;;;6.38;1.65;;;;;;;;;;5034083;28;20615;-52
2023/05/03 14:18:04;;;;;;;5.07;2.17;;;;;;;;;;5040526;28;20650;-54
2023/05/03 14:20:31;;;;;;;4.15;1.95;;;;;;;;;;5040287;28;20253;-51
2023/05/03 14:22:57;;;;;;;4.82;1.88;;;;;;;;;;5031631;28;20746;-54
2023/05/03 14:25:24;;;;;;;2.53;1.67;;;;;;;;;;5036543;28;20310;-52
2023/05/03 14:27:51;;;;;;;3.17;1.70;;;;;;;;;;5030226;28;20235;-52
2023/05/03 14:30:18;;;;;;;1.58;1.38;;;;;;;;;;5034276;28;20232;-52
2023/05/03 14:32:44;;;;;;;3.42;2.13;;;;;;;;;;5048616;28;20599;-52
2023/05/03 14:35:11;;;;;;;3.05;1.20;;;;;;;;;;5048604;28;20220;-53
2023/05/03 14:37:37;;;;;;;2.42;1.83;;;;;;;;;;5032682;28;20251;-52
2023/05/03 14:40:04;;;;;;;3.65;1.95;;;;;;;;;;5032511;28;20605;-52
2023/05/03 14:42:31;;;;;;;4.78;1.92;;;;;;;;;;5033537;28;20932;-52
2023/05/03 14:44:59;;;;;;;5.32;1.88;;;;;;;;;;5041365;28;20228;-53
2023/05/03 14:47:25;;;;;;;2.53;1.50;;;;;;;;;;5047477;28;20260;-51